Time;durP1;ratioP1;P1;durP2;ratioP2;P2;SDS_P1;SDS_P2;PMS_P1;PMS_P2;Temp;Humidity;BMP_temperature;BMP_pressure;BME280_temperature;BME280_humidity;BME280_pressure;Samples;Min_cycle;Max_cycle;Signal;HPM_P1;HPM_P2
2020/12/13 00:02:10;;;;;;;12.25;9.50;;;;;;;18.74;57.34;100524.00;4804592;29;20039;-73
2020/12/13 00:04:35;;;;;;;10.45;7.68;;;;;;;18.75;57.33;100525.75;4789869;29;20041;-72
2020/12/13 00:07:00;;;;;;;11.35;7.70;;;;;;;18.73;57.34;100527.50;4790116;29;20067;-72
2020/12/13 00:09:26;;;;;;;9.40;8.05;;;;;;;18.74;57.27;100526.63;4789521;29;20511;-72
2020/12/13 00:11:51;;;;;;;9.88;7.57;;;;;;;18.71;57.33;100520.53;4805934;29;20130;-72
2020/12/13 00:14:16;;;;;;;10.18;7.57;;;;;;;18.75;57.24;100522.25;4804961;29;20129;-72
2020/12/13 00:16:42;;;;;;;8.60;6.85;;;;;;;18.73;57.56;100524.88;4804987;29;20397;-72
2020/12/13 00:19:07;;;;;;;9.32;6.82;;;;;;;18.73;57.33;100535.34;4805699;29;20063;-72
2020/12/13 00:21:32;;;;;;;8.13;7.18;;;;;;;18.72;57.46;100530.13;4819449;29;20043;-71
2020/12/13 00:23:58;;;;;;;9.68;8.40;;;;;;;18.68;57.55;100538.94;4788154;29;20154;-70
2020/12/13 00:26:23;;;;;;;8.07;7.18;;;;;;;18.67;57.36;100532.81;4803914;29;20035;-70
2020/12/13 00:28:48;;;;;;;8.43;6.70;;;;;;;18.65;57.25;100534.59;4789035;29;20059;-70
2020/12/13 00:31:15;;;;;;;11.05;6.90;;;;;;;18.69;57.44;100538.06;4805366;29;20042;-70
2020/12/13 00:33:41;;;;;;;8.85;7.95;;;;;;;18.63;57.46;100531.09;4803658;29;20035;-72
2020/12/13 00:36:07;;;;;;;9.68;7.18;;;;;;;18.67;57.51;100542.44;4803389;29;20117;-72
2020/12/13 00:38:33;;;;;;;8.88;7.10;;;;;;;18.61;57.48;100535.50;4804245;29;20122;-72
2020/12/13 00:40:58;;;;;;;8.73;7.38;;;;;;;18.67;57.36;100547.66;4804854;29;20042;-72
2020/12/13 00:43:23;;;;;;;8.43;6.28;;;;;;;18.60;57.55;100535.50;4803667;29;20506;-72
2020/12/13 00:45:49;;;;;;;8.60;6.70;;;;;;;18.65;57.50;100544.19;4788760;29;20046;-72
2020/12/13 00:48:14;;;;;;;7.43;6.70;;;;;;;18.64;57.53;100551.19;4805498;29;20042;-72
2020/12/13 00:50:40;;;;;;;7.13;6.43;;;;;;;18.63;57.53;100553.81;4806193;29;20092;-72
2020/12/13 00:53:08;;;;;;;9.10;7.28;;;;;;;18.64;57.64;100556.41;4804816;29;20140;-72
2020/12/13 00:55:34;;;;;;;8.27;6.50;;;;;;;18.62;57.50;100557.31;4808786;29;20038;-72
2020/12/13 00:58:00;;;;;;;7.32;6.40;;;;;;;18.63;57.69;100564.28;4806353;29;20390;-72
2020/12/13 01:00:27;;;;;;;8.18;7.15;;;;;;;18.61;57.59;100556.44;4818261;29;20035;-72
2020/12/13 01:02:57;;;;;;;7.05;5.97;;;;;;;18.60;57.40;100559.94;4815994;29;20069;-72
2020/12/13 01:05:23;;;;;;;6.97;6.28;;;;;;;18.57;57.42;100565.16;4821131;29;20502;-72
2020/12/13 01:07:48;;;;;;;7.28;6.55;;;;;;;18.57;57.67;100570.41;4806692;29;20087;-72
2020/12/13 01:10:13;;;;;;;7.65;6.03;;;;;;;18.61;57.75;100587.00;4804365;29;20030;-72
2020/12/13 01:12:41;;;;;;;8.18;6.38;;;;;;;18.58;57.48;100572.19;4806309;29;20399;-72
2020/12/13 01:15:07;;;;;;;8.00;6.65;;;;;;;18.59;57.56;100573.03;4806952;29;20559;-72
2020/12/13 01:17:32;;;;;;;9.07;6.65;;;;;;;18.58;57.62;100580.03;4805962;29;20474;-72
2020/12/13 01:19:58;;;;;;;6.75;5.93;;;;;;;18.57;57.52;100578.25;4806685;29;20118;-72
2020/12/13 01:22:23;;;;;;;7.70;6.15;;;;;;;18.57;57.56;100583.50;4804773;29;20365;-72
2020/12/13 01:24:49;;;;;;;8.90;6.60;;;;;;;18.55;57.54;100586.16;4808957;29;20107;-72
2020/12/13 01:27:15;;;;;;;7.38;6.28;;;;;;;18.56;57.50;100592.28;4808890;29;21035;-72
2020/12/13 01:29:40;;;;;;;7.28;5.68;;;;;;;18.56;57.49;100592.28;4805115;29;20103;-71
2020/12/13 01:32:05;;;;;;;7.70;5.82;;;;;;;18.52;57.47;100588.78;4792024;29;20043;-71
2020/12/13 01:34:31;;;;;;;6.85;6.05;;;;;;;18.54;57.69;100596.66;4803114;29;20035;-71
2020/12/13 01:36:56;;;;;;;8.52;6.97;;;;;;;18.53;57.39;100597.53;4803688;29;20070;-71
2020/12/13 01:39:21;;;;;;;7.22;6.53;;;;;;;18.54;57.66;100605.38;4806244;29;20093;-71
2020/12/13 01:41:47;;;;;;;7.13;5.97;;;;;;;18.54;57.68;100607.13;4806217;29;20054;-71
2020/12/13 01:44:12;;;;;;;7.22;6.53;;;;;;;18.50;57.50;100606.28;4805306;29;21053;-71
2020/12/13 01:46:41;;;;;;;7.38;6.68;;;;;;;18.48;57.58;100602.78;4805230;29;20059;-71
2020/12/13 01:49:09;;;;;;;6.20;5.25;;;;;;;18.52;57.59;100612.38;4804034;29;20049;-71
2020/12/13 01:52:03;;;;;;;5.75;5.18;;;;;;;18.49;57.49;100607.16;4805408;29;20059;-71
2020/12/13 01:54:29;;;;;;;7.50;6.28;;;;;;;18.48;57.55;100600.16;4805139;29;20471;-71
2020/12/13 01:56:56;;;;;;;7.07;5.65;;;;;;;18.48;57.71;100608.03;4806746;29;20435;-71
2020/12/13 01:59:24;;;;;;;6.38;5.68;;;;;;;18.47;57.47;100608.03;4805555;29;20446;-71
2020/12/13 02:01:57;;;;;;;6.90;6.20;;;;;;;18.48;57.58;100608.03;4815159;29;20088;-71
2020/12/13 02:04:23;;;;;;;9.63;5.88;;;;;;;18.49;57.52;100624.59;4805429;29;20043;-71
2020/12/13 02:06:51;;;;;;;6.95;6.22;;;;;;;18.48;57.51;100623.75;4807654;29;20042;-74
2020/12/13 02:09:17;;;;;;;6.05;5.25;;;;;;;18.43;57.56;100614.19;4807037;29;20504;-74
2020/12/13 02:11:42;;;;;;;7.43;6.07;;;;;;;18.46;57.54;100616.78;4821199;29;20133;-74
2020/12/13 02:14:08;;;;;;;6.25;5.32;;;;;;;18.45;57.48;100604.56;4805629;29;20046;-74
2020/12/13 02:16:33;;;;;;;5.70;5.10;;;;;;;18.43;57.70;100615.06;4806475;29;20035;-73
2020/12/13 02:19:00;;;;;;;5.95;5.18;;;;;;;18.45;57.46;100631.59;4807355;29;20042;-74
2020/12/13 02:21:25;;;;;;;5.45;4.95;;;;;;;18.45;57.53;100626.38;4811087;29;20039;-74
2020/12/13 02:23:53;;;;;;;6.35;5.03;;;;;;;18.43;57.28;100622.94;4805545;29;20042;-74
2020/12/13 02:26:18;;;;;;;6.32;5.22;;;;;;;18.44;57.58;100631.63;4806812;29;20043;-74
2020/12/13 02:28:44;;;;;;;6.00;5.13;;;;;;;18.42;57.44;100636.03;4805857;29;20042;-74
2020/12/13 02:31:10;;;;;;;6.53;4.97;;;;;;;18.40;57.72;100633.41;4807384;29;20033;-74
2020/12/13 02:33:36;;;;;;;5.85;4.97;;;;;;;18.42;57.57;100630.78;4806073;29;20383;-73
2020/12/13 02:36:02;;;;;;;5.65;5.03;;;;;;;18.41;57.49;100629.06;4807292;29;20031;-73
2020/12/13 02:38:28;;;;;;;6.63;5.45;;;;;;;18.40;57.23;100633.41;4807000;29;20491;-73
2020/12/13 02:40:54;;;;;;;6.15;4.95;;;;;;;18.40;57.51;100641.28;4807165;29;20037;-73
2020/12/13 02:43:19;;;;;;;6.10;5.28;;;;;;;18.40;57.36;100656.09;4806881;29;20055;-74
2020/12/13 02:45:45;;;;;;;5.13;4.63;;;;;;;18.37;57.53;100654.38;4793753;29;20095;-74
2020/12/13 02:48:10;;;;;;;6.35;4.80;;;;;;;18.36;57.46;100651.75;4824054;29;20045;-73
2020/12/13 02:50:36;;;;;;;6.70;5.35;;;;;;;18.38;57.37;100658.75;4808931;29;20035;-74
2020/12/13 02:53:01;;;;;;;6.85;5.50;;;;;;;18.35;57.39;100656.13;4820351;29;20022;-74
2020/12/13 02:55:27;;;;;;;6.25;5.65;;;;;;;18.36;57.18;100670.97;4805517;29;20042;-73
2020/12/13 02:57:52;;;;;;;5.18;4.47;;;;;;;18.33;57.26;100660.50;4790480;29;20141;-74
2020/12/13 03:00:18;;;;;;;4.90;4.20;;;;;;;18.36;57.40;100670.09;4805504;29;20134;-73
2020/12/13 03:02:43;;;;;;;6.07;5.15;;;;;;;18.32;57.37;100669.22;4806828;29;20121;-74
2020/12/13 03:05:09;;;;;;;5.25;4.35;;;;;;;18.33;57.40;100670.09;4805742;29;20043;-74
2020/12/13 03:07:34;;;;;;;5.38;4.05;;;;;;;18.35;57.21;100676.22;4805662;29;20040;-74
2020/12/13 03:09:59;;;;;;;5.03;4.18;;;;;;;18.33;57.26;100675.34;4806571;29;20031;-73
2020/12/13 03:12:25;;;;;;;5.32;4.75;;;;;;;18.35;57.27;100679.69;4794331;29;20039;-74
2020/12/13 03:14:54;;;;;;;4.57;4.00;;;;;;;18.34;57.25;100682.31;4795947;29;20486;-74
2020/12/13 03:17:20;;;;;;;4.68;3.67;;;;;;;18.32;57.17;100686.69;4805464;29;20066;-74
2020/12/13 03:19:46;;;;;;;4.88;4.38;;;;;;;18.32;57.21;100689.31;4805165;29;20065;-74
2020/12/13 03:22:11;;;;;;;5.25;4.57;;;;;;;18.30;57.33;100684.13;4807016;29;20045;-73
2020/12/13 03:24:37;;;;;;;4.93;4.35;;;;;;;18.31;57.31;100690.19;4807232;29;20046;-74
2020/12/13 03:27:03;;;;;;;4.70;3.95;;;;;;;18.29;57.09;100681.50;4788480;29;20034;-73
2020/12/13 03:29:28;;;;;;;5.20;4.28;;;;;;;18.29;57.17;100681.50;4806440;29;20037;-74
2020/12/13 03:31:53;;;;;;;4.07;3.58;;;;;;;18.32;57.27;100694.53;4791528;29;20043;-73
2020/12/13 03:34:19;;;;;;;5.18;4.63;;;;;;;18.28;57.22;100696.34;4806435;29;20035;-73
2020/12/13 03:36:44;;;;;;;5.07;4.53;;;;;;;18.30;57.11;100699.81;4801973;29;20039;-73
2020/12/13 03:39:09;;;;;;;5.90;4.13;;;;;;;18.26;57.27;100699.84;4790016;29;20031;-73
2020/12/13 03:41:35;;;;;;;5.07;4.55;;;;;;;18.28;57.20;100704.19;4801171;29;20085;-73
2020/12/13 03:44:00;;;;;;;4.85;4.35;;;;;;;18.29;57.33;100705.94;4772505;29;20035;-73
2020/12/13 03:46:25;;;;;;;5.20;4.13;;;;;;;18.27;57.35;100709.44;4803538;29;20054;-73
2020/12/13 03:48:51;;;;;;;4.53;3.92;;;;;;;18.26;57.18;100708.56;4805894;29;20033;-73
2020/12/13 03:51:16;;;;;;;4.22;3.83;;;;;;;18.24;57.08;100715.53;4804452;29;20066;-73
2020/12/13 03:53:42;;;;;;;5.30;4.10;;;;;;;18.26;57.16;100721.66;4805740;29;20406;-73
2020/12/13 03:56:07;;;;;;;4.50;4.03;;;;;;;18.29;57.30;100726.00;4786962;29;20031;-73
2020/12/13 03:58:32;;;;;;;6.53;5.30;;;;;;;18.27;57.14;100726.00;4807110;29;20046;-73
2020/12/13 04:00:58;;;;;;;4.38;3.72;;;;;;;18.25;57.12;100719.03;4816197;29;20064;-74
2020/12/13 04:03:23;;;;;;;4.82;4.00;;;;;;;18.27;56.88;100732.97;4789724;29;20035;-74
2020/12/13 04:05:48;;;;;;;4.18;3.78;;;;;;;18.25;57.16;100725.13;4804125;29;20063;-73
2020/12/13 04:08:14;;;;;;;4.53;3.35;;;;;;;18.34;56.70;100730.31;4805737;29;20035;-73
2020/12/13 04:10:39;;;;;;;4.38;3.92;;;;;;;18.40;56.43;100724.19;4806286;29;20427;-73
2020/12/13 04:13:04;;;;;;;4.10;3.58;;;;;;;18.42;56.74;100728.53;4804777;29;20038;-73
2020/12/13 04:15:30;;;;;;;3.33;3.03;;;;;;;18.45;56.42;100736.34;4789565;29;20364;-73
2020/12/13 04:17:55;;;;;;;3.70;3.30;;;;;;;18.53;56.26;100734.56;4805895;29;20055;-73
2020/12/13 04:20:21;;;;;;;3.35;3.00;;;;;;;18.54;56.34;100727.56;4789831;29;20175;-73
2020/12/13 04:22:46;;;;;;;3.83;3.40;;;;;;;18.51;56.29;100730.22;4819844;29;20049;-73
2020/12/13 04:25:12;;;;;;;3.42;3.03;;;;;;;18.53;56.70;100725.84;4805905;29;20050;-73
2020/12/13 04:27:37;;;;;;;3.75;3.35;;;;;;;18.60;56.42;100729.31;4804270;29;20067;-71
2020/12/13 04:30:04;;;;;;;3.70;3.10;;;;;;;18.56;56.37;100731.91;4806916;29;20047;-71
2020/12/13 04:32:30;;;;;;;4.13;3.38;;;;;;;18.57;56.20;100740.63;4792251;29;20042;-71
2020/12/13 04:34:55;;;;;;;3.78;3.03;;;;;;;18.63;56.29;100738.00;4809089;29;20479;-71
2020/12/13 04:37:23;;;;;;;4.18;3.35;;;;;;;18.61;56.29;100731.91;4809212;29;20031;-71
2020/12/13 04:39:50;;;;;;;4.70;3.78;;;;;;;18.61;56.28;100744.13;4807408;29;20038;-71
2020/12/13 04:42:16;;;;;;;3.85;3.10;;;;;;;18.62;56.13;100740.63;4791910;29;20506;-71
2020/12/13 04:44:42;;;;;;;3.00;2.70;;;;;;;18.67;56.38;100747.59;4811733;29;20051;-71
2020/12/13 04:47:07;;;;;;;3.40;2.90;;;;;;;18.62;56.37;100733.66;4808307;29;20073;-71
2020/12/13 04:49:35;;;;;;;3.13;2.72;;;;;;;18.64;56.72;100737.13;4808960;29;20041;-71
2020/12/13 04:52:02;;;;;;;3.55;3.17;;;;;;;18.68;56.22;100741.47;4790245;29;20039;-71
2020/12/13 04:54:29;;;;;;;3.00;2.70;;;;;;;18.69;56.33;100743.22;4806206;29;20538;-71
2020/12/13 04:56:57;;;;;;;4.55;3.00;;;;;;;18.67;56.31;100751.97;4807319;29;20039;-71
2020/12/13 04:59:22;;;;;;;3.17;2.88;;;;;;;18.69;56.32;100750.22;4807941;29;20041;-71
2020/12/13 05:01:48;;;;;;;3.50;2.70;;;;;;;18.73;56.49;100754.53;4794081;29;20035;-71
2020/12/13 05:04:15;;;;;;;2.80;2.45;;;;;;;18.67;56.56;100752.84;4799828;29;20122;-71
2020/12/13 05:06:43;;;;;;;3.25;2.70;;;;;;;18.72;56.05;100755.41;4807140;29;20035;-71
2020/12/13 05:09:09;;;;;;;3.22;2.70;;;;;;;18.73;56.37;100757.16;4807235;29;20502;-71
2020/12/13 05:11:38;;;;;;;2.85;2.25;;;;;;;18.69;56.43;100753.69;4792218;29;20039;-71
2020/12/13 05:14:03;;;;;;;4.25;3.38;;;;;;;18.72;56.29;100751.03;4808086;29;20026;-71
2020/12/13 05:16:29;;;;;;;3.58;2.80;;;;;;;18.75;56.27;100760.63;4808465;29;20042;-71
2020/12/13 05:18:55;;;;;;;3.65;2.60;;;;;;;18.76;56.28;100768.47;4805320;29;20031;-71
2020/12/13 05:21:22;;;;;;;2.67;2.13;;;;;;;18.76;56.30;100762.38;4805830;29;20417;-71
2020/12/13 05:23:48;;;;;;;3.30;2.75;;;;;;;18.77;56.31;100762.34;4806164;29;20061;-71
2020/12/13 05:26:20;;;;;;;3.17;2.40;;;;;;;18.77;56.42;100766.72;4806531;29;20043;-71
2020/12/13 05:28:50;;;;;;;3.17;2.70;;;;;;;18.75;56.34;100763.25;4808176;29;20054;-71
2020/12/13 05:31:23;;;;;;;3.42;2.92;;;;;;;18.79;56.41;100763.22;4788517;30;20042;-74
2020/12/13 05:34:07;;;;;;;3.00;2.58;;;;;;;18.81;56.20;100757.97;4795939;29;20027;-73
2020/12/13 05:36:38;;;;;;;3.58;2.95;;;;;;;18.77;56.33;100753.63;4806490;29;20564;-71
2020/12/13 05:39:04;;;;;;;4.03;3.35;;;;;;;18.82;56.20;100760.59;4806943;29;20550;-71
2020/12/13 05:41:32;;;;;;;3.33;2.80;;;;;;;18.78;56.36;100750.13;4801994;29;20118;-71
2020/12/13 05:44:18;;;;;;;2.78;2.15;;;;;;;18.76;56.37;100751.88;4809627;29;20482;-72
2020/12/13 05:46:54;;;;;;;2.65;2.15;;;;;;;18.75;56.64;100755.38;4811611;29;20083;-71
2020/12/13 05:52:14;;;;;;;3.20;2.25;;;;;;;18.71;56.94;100761.53;4785783;29;20118;-71
2020/12/13 05:54:40;;;;;;;2.78;2.38;;;;;;;18.66;56.72;100758.94;4808522;29;20031;-71
2020/12/13 05:57:05;;;;;;;2.67;2.25;;;;;;;18.67;56.72;100767.69;4799505;29;20103;-71
2020/12/13 05:59:31;;;;;;;2.38;2.00;;;;;;;18.65;56.91;100764.19;4800690;29;20038;-71
2020/12/13 06:01:59;;;;;;;2.95;2.15;;;;;;;18.63;56.89;100773.81;4808534;29;20042;-71
2020/12/13 06:04:30;;;;;;;3.25;2.10;;;;;;;18.59;56.69;100767.72;4808129;29;20074;-71
2020/12/13 06:06:58;;;;;;;2.80;2.50;;;;;;;18.60;57.09;100764.22;4807728;29;20034;-71
2020/12/13 06:09:34;;;;;;;3.38;2.30;;;;;;;18.57;57.11;100769.44;4807583;29;20070;-71
2020/12/13 06:12:08;;;;;;;2.97;2.20;;;;;;;18.54;57.04;100770.34;4806477;29;20084;-71
2020/12/13 06:14:36;;;;;;;2.05;1.65;;;;;;;18.55;57.07;100776.47;4806920;29;20034;-74
2020/12/13 06:17:02;;;;;;;2.90;2.35;;;;;;;18.52;57.23;100772.09;4804967;29;20038;-73
2020/12/13 06:19:29;;;;;;;2.85;2.42;;;;;;;18.54;57.18;100777.34;4808097;29;20042;-74
2020/12/13 06:21:56;;;;;;;4.22;2.22;;;;;;;18.50;57.01;100768.63;4811815;29;20071;-73
2020/12/13 06:24:23;;;;;;;4.03;2.70;;;;;;;18.50;56.82;100775.59;4804180;29;20027;-73
2020/12/13 06:26:49;;;;;;;3.13;2.55;;;;;;;18.49;57.14;100772.13;4793516;29;20105;-73
2020/12/13 06:29:15;;;;;;;2.90;2.25;;;;;;;18.51;57.00;100780.84;4813994;29;20105;-74
2020/12/13 06:31:41;;;;;;;2.70;2.20;;;;;;;18.50;57.00;100780.84;4805992;29;20135;-73
2020/12/13 06:34:07;;;;;;;2.72;2.30;;;;;;;18.50;57.07;100783.47;4807350;29;20058;-74
2020/12/13 06:36:35;;;;;;;3.42;2.63;;;;;;;18.46;56.77;100785.22;4820014;29;20482;-73
2020/12/13 06:39:01;;;;;;;3.83;2.67;;;;;;;18.48;57.00;100783.47;4797856;29;20120;-73
2020/12/13 06:41:31;;;;;;;2.60;2.20;;;;;;;18.45;56.79;100778.25;4815304;29;20030;-73
2020/12/13 06:44:00;;;;;;;3.08;2.28;;;;;;;18.49;57.35;100781.72;4806955;29;20479;-74
2020/12/13 06:46:27;;;;;;;2.83;2.20;;;;;;;18.51;56.89;100777.34;4806828;29;20031;-73
2020/12/13 06:48:53;;;;;;;3.85;2.08;;;;;;;18.53;56.70;100788.69;4803271;29;20113;-73
2020/12/13 06:51:29;;;;;;;3.50;2.85;;;;;;;18.65;56.15;100782.53;4807341;29;20062;-73
2020/12/13 06:53:55;;;;;;;3.13;2.38;;;;;;;18.73;56.32;100789.44;4805523;29;20023;-73
2020/12/13 06:56:21;;;;;;;3.50;2.10;;;;;;;18.72;55.85;100787.72;4822788;29;20113;-72
2020/12/13 06:58:59;;;;;;;3.28;2.10;;;;;;;18.74;55.71;100793.81;4802219;29;20122;-71
2020/12/13 07:01:27;;;;;;;3.67;2.05;;;;;;;18.83;55.96;100792.88;4803744;29;20037;-71
2020/12/13 07:03:54;;;;;;;4.75;2.35;;;;;;;18.78;56.16;100790.31;4805228;29;20035;-73
2020/12/13 07:06:25;;;;;;;5.28;2.13;;;;;;;18.82;56.16;100796.41;4808757;29;20035;-73
2020/12/13 07:08:53;;;;;;;3.38;2.35;;;;;;;18.92;55.59;100793.69;4806587;29;20376;-72
2020/12/13 07:11:22;;;;;;;4.28;2.20;;;;;;;18.90;55.86;100800.69;4791022;29;20041;-73
2020/12/13 07:13:48;;;;;;;6.50;2.83;;;;;;;18.93;56.02;100810.28;4819865;29;20027;-72
2020/12/13 07:18:59;;;;;;;6.72;1.95;;;;;;;18.97;55.85;100811.97;4820213;29;20051;-72
2020/12/13 07:21:24;;;;;;;4.75;2.53;;;;;;;18.95;56.30;100816.38;4798442;29;20038;-71
2020/12/13 07:23:50;;;;;;;4.10;2.35;;;;;;;18.99;55.83;100807.59;4787578;30;20040;-72
2020/12/13 07:26:15;;;;;;;4.35;2.47;;;;;;;19.02;55.91;100810.22;4772994;30;20095;-72
2020/12/13 07:28:42;;;;;;;8.05;2.58;;;;;;;18.98;56.13;100818.09;4802801;29;20038;-72
2020/12/13 07:31:09;;;;;;;9.57;2.40;;;;;;;19.03;55.94;100826.81;4787454;30;20046;-72
2020/12/13 07:33:34;;;;;;;6.22;2.58;;;;;;;19.03;56.01;100818.94;4787973;29;20464;-72
2020/12/13 07:36:00;;;;;;;3.70;2.20;;;;;;;19.04;55.96;100831.16;4804028;29;20045;-72
2020/12/13 07:38:25;;;;;;;4.25;2.22;;;;;;;19.06;56.09;100837.28;4806953;29;20039;-72
2020/12/13 07:40:51;;;;;;;4.72;2.38;;;;;;;19.10;55.92;100838.97;4805571;29;20035;-72
2020/12/13 07:43:16;;;;;;;4.20;2.13;;;;;;;19.05;55.95;100831.16;4804632;29;20515;-72
2020/12/13 07:45:41;;;;;;;4.95;2.60;;;;;;;19.06;55.95;100839.91;4805029;29;20049;-72
2020/12/13 07:48:07;;;;;;;2.53;1.85;;;;;;;19.11;55.77;100841.59;4804330;29;20039;-72
2020/12/13 07:50:44;;;;;;;6.05;2.58;;;;;;;19.10;55.92;100846.84;4771922;29;20418;-72
2020/12/13 07:53:09;;;;;;;3.00;1.90;;;;;;;19.08;55.86;100854.72;4803306;29;20478;-72
2020/12/13 07:55:41;;;;;;;4.55;1.92;;;;;;;19.13;55.48;100847.69;4804857;29;20058;-73
2020/12/13 07:58:06;;;;;;;4.55;2.05;;;;;;;19.14;55.77;100848.56;4805575;29;20039;-72
2020/12/13 08:00:32;;;;;;;3.08;2.50;;;;;;;19.06;55.90;100855.63;4805150;29;20050;-72
2020/12/13 08:02:57;;;;;;;3.65;1.80;;;;;;;19.08;55.93;100866.97;4819928;29;20038;-72
2020/12/13 08:05:27;;;;;;;3.55;1.88;;;;;;;19.13;55.62;100867.78;4807795;29;20035;-72
2020/12/13 08:07:59;;;;;;;2.25;1.52;;;;;;;19.11;55.68;100875.66;4796341;29;20043;-72
2020/12/13 08:10:28;;;;;;;2.75;1.90;;;;;;;19.08;55.87;100874.84;4786926;29;20141;-74
2020/12/13 08:12:53;;;;;;;3.33;1.88;;;;;;;19.15;55.48;100873.88;4806643;29;20379;-72
2020/12/13 08:15:19;;;;;;;5.13;2.05;;;;;;;19.16;55.60;100884.38;4807766;29;20045;-73
2020/12/13 08:17:57;;;;;;;2.85;1.92;;;;;;;19.13;55.75;100883.50;4804207;29;20092;-73
2020/12/13 08:20:23;;;;;;;2.47;1.95;;;;;;;19.20;55.59;100886.09;4807120;29;20041;-73
2020/12/13 08:22:51;;;;;;;5.32;2.30;;;;;;;19.20;55.75;100880.00;4799102;29;20032;-73
2020/12/13 08:25:18;;;;;;;3.00;1.75;;;;;;;19.13;56.00;100883.50;4799098;29;20118;-73
2020/12/13 08:27:44;;;;;;;3.65;2.10;;;;;;;19.15;55.54;100881.75;4805789;29;20042;-72
2020/12/13 08:30:10;;;;;;;5.03;2.10;;;;;;;19.17;55.46;100883.50;4809199;29;20494;-73
2020/12/13 08:32:37;;;;;;;3.42;1.90;;;;;;;19.14;55.75;100888.75;4808425;29;20042;-72
2020/12/13 08:35:09;;;;;;;2.05;1.45;;;;;;;19.20;55.56;100904.44;4798636;29;20032;-72
2020/12/13 08:37:34;;;;;;;3.85;1.60;;;;;;;19.20;55.49;100895.72;4805221;29;20450;-73
2020/12/13 08:39:59;;;;;;;3.50;1.65;;;;;;;19.16;55.60;100901.84;4809198;29;20051;-73
2020/12/13 08:42:25;;;;;;;2.80;1.52;;;;;;;19.16;55.51;100900.09;4784769;29;20055;-72
2020/12/13 08:44:50;;;;;;;3.15;1.83;;;;;;;19.23;55.41;100908.78;4809170;29;20043;-72
2020/12/13 08:47:19;;;;;;;2.75;1.98;;;;;;;19.17;55.46;100904.47;4822692;29;20031;-72
2020/12/13 08:49:48;;;;;;;4.65;2.15;;;;;;;19.17;55.41;100908.84;4807413;29;20058;-74
2020/12/13 08:52:16;;;;;;;2.70;1.63;;;;;;;19.20;55.10;100909.69;4804441;29;20429;-72
2020/12/13 08:54:56;;;;;;;2.72;1.60;;;;;;;19.13;55.42;100910.59;4794201;29;20023;-73
2020/12/13 08:57:45;;;;;;;3.88;1.70;;;;;;;19.17;55.42;100909.72;4784075;29;20027;-72
2020/12/13 09:00:15;;;;;;;5.68;1.80;;;;;;;19.25;55.26;100910.50;4807910;29;20148;-73
2020/12/13 09:02:54;;;;;;;4.10;1.65;;;;;;;19.27;55.03;100914.00;4806164;29;20027;-72
2020/12/13 09:05:25;;;;;;;3.40;2.38;;;;;;;19.28;55.36;100925.34;4810508;29;20524;-72
2020/12/13 09:07:53;;;;;;;6.90;1.83;;;;;;;19.35;55.22;100931.41;4807680;29;20039;-73
2020/12/13 09:10:19;;;;;;;4.88;2.13;;;;;;;19.26;55.35;100917.50;4786741;29;20034;-74
2020/12/13 09:12:44;;;;;;;17.50;2.92;;;;;;;19.25;55.25;100930.63;4790404;29;20368;-73
2020/12/13 09:15:15;;;;;;;4.35;2.03;;;;;;;19.21;54.97;100919.28;4787664;29;20495;-73
2020/12/13 09:17:41;;;;;;;3.92;2.00;;;;;;;19.24;54.81;100928.88;4805723;29;21854;-73
2020/12/13 09:20:07;;;;;;;1.83;1.30;;;;;;;19.22;55.23;100933.25;4802186;29;20030;-73
2020/12/13 09:22:33;;;;;;;5.57;2.45;;;;;;;19.28;55.06;100930.59;4803928;29;20469;-73
2020/12/13 09:24:59;;;;;;;2.53;1.70;;;;;;;19.29;55.23;100929.72;4789033;29;20121;-72
2020/12/13 09:27:26;;;;;;;3.95;1.80;;;;;;;19.25;55.46;100941.97;4795859;29;20033;-72
2020/12/13 09:29:52;;;;;;;5.30;2.15;;;;;;;19.29;55.19;100937.59;4784158;29;20054;-72
2020/12/13 09:32:19;;;;;;;7.70;1.90;;;;;;;19.29;55.32;100955.94;4800371;29;20046;-72
2020/12/13 09:34:45;;;;;;;5.30;1.50;;;;;;;19.25;56.13;100959.47;4797437;29;20074;-72
2020/12/13 09:37:13;;;;;;;2.08;1.55;;;;;;;19.27;55.60;100950.72;4802029;29;20031;-73
2020/12/13 09:39:40;;;;;;;2.80;1.35;;;;;;;19.27;55.90;100955.94;4796864;29;20046;-73
2020/12/13 09:42:07;;;;;;;3.13;1.52;;;;;;;19.26;55.87;100951.59;4800984;29;20077;-72
2020/12/13 09:44:32;;;;;;;3.15;1.55;;;;;;;19.28;55.65;100955.06;4800169;29;20375;-72
2020/12/13 09:46:59;;;;;;;2.60;1.48;;;;;;;19.28;56.00;100948.97;4797141;29;20070;-72
2020/12/13 09:49:29;;;;;;;2.60;1.58;;;;;;;19.25;56.38;100957.72;4798961;29;20499;-72
2020/12/13 09:51:59;;;;;;;2.95;1.30;;;;;;;19.32;55.77;100960.31;4771552;29;20054;-72
2020/12/13 09:54:26;;;;;;;1.92;1.30;;;;;;;19.32;55.71;100955.06;4794725;29;20087;-72
2020/12/13 09:56:51;;;;;;;3.72;1.40;;;;;;;19.26;56.32;100945.47;4794780;29;20552;-72
2020/12/13 09:59:17;;;;;;;2.85;1.50;;;;;;;19.26;55.82;100945.47;4790042;29;20047;-72
2020/12/13 10:01:42;;;;;;;4.20;1.20;;;;;;;19.32;55.73;100957.69;4800844;29;20043;-72
2020/12/13 10:04:08;;;;;;;1.58;1.20;;;;;;;19.26;56.39;100945.47;4797892;29;20043;-72
2020/12/13 10:09:09;;;;;;;2.28;1.58;;;;;;;19.31;55.71;100942.84;4802890;29;20043;-72
2020/12/13 10:11:37;;;;;;;2.33;1.35;;;;;;;19.32;56.26;100950.69;4770142;29;20027;-72
2020/12/13 10:14:04;;;;;;;3.95;1.70;;;;;;;19.26;56.37;100941.09;4802574;29;20031;-72
2020/12/13 10:16:30;;;;;;;3.65;1.17;;;;;;;19.36;55.97;100951.50;4780663;29;20039;-72
2020/12/13 10:18:55;;;;;;;2.13;1.23;;;;;;;19.30;56.42;100943.72;4805389;29;20082;-71
2020/12/13 10:21:22;;;;;;;3.60;1.30;;;;;;;19.29;56.05;100940.22;4804283;29;20039;-72
2020/12/13 10:23:47;;;;;;;4.88;1.20;;;;;;;19.34;55.81;100935.81;4799761;29;20518;-72
2020/12/13 10:26:12;;;;;;;2.15;1.33;;;;;;;19.36;55.95;100933.16;4769474;29;20130;-72
2020/12/13 10:28:38;;;;;;;1.33;1.20;;;;;;;19.33;56.04;100944.56;4799093;29;20533;-72
2020/12/13 10:31:04;;;;;;;1.83;1.00;;;;;;;19.39;55.86;100943.63;4802288;29;20034;-72
2020/12/13 10:33:29;;;;;;;2.60;1.40;;;;;;;19.38;56.19;100936.66;4800459;29;20035;-72
2020/12/13 10:35:54;;;;;;;1.67;1.17;;;;;;;19.34;56.34;100934.94;4783910;29;20487;-72
2020/12/13 10:38:20;;;;;;;1.88;1.15;;;;;;;19.36;55.80;100930.53;4802451;29;20406;-72
2020/12/13 10:40:45;;;;;;;2.58;1.30;;;;;;;19.39;56.15;100930.53;4758431;29;20525;-72
2020/12/13 10:43:10;;;;;;;1.55;1.05;;;;;;;19.38;56.44;100934.91;4795873;29;20053;-72
2020/12/13 10:45:36;;;;;;;1.85;1.10;;;;;;;19.42;55.76;100935.75;4782832;29;20388;-72
2020/12/13 10:48:01;;;;;;;3.63;1.65;;;;;;;19.42;56.10;100930.50;4767109;29;20043;-72
2020/12/13 10:50:26;;;;;;;3.33;1.85;;;;;;;19.39;56.50;100941.00;4802538;29;20038;-72
2020/12/13 10:52:53;;;;;;;1.85;1.08;;;;;;;19.34;56.01;100921.84;4801620;29;20534;-72
2020/12/13 10:55:21;;;;;;;1.67;0.90;;;;;;;19.40;56.08;100935.75;4798853;29;20031;-72
2020/12/13 10:57:46;;;;;;;1.50;1.02;;;;;;;19.39;56.50;100939.25;4792722;29;20027;-72
2020/12/13 11:00:12;;;;;;;2.22;1.00;;;;;;;19.38;56.18;100934.03;4794454;29;20051;-72
2020/12/13 11:02:37;;;;;;;2.75;0.98;;;;;;;19.41;56.08;100936.63;4791061;29;20083;-72
2020/12/13 11:05:02;;;;;;;3.28;1.42;;;;;;;19.38;56.39;100934.03;4780641;29;20046;-72
2020/12/13 11:07:28;;;;;;;1.85;1.20;;;;;;;19.36;56.17;100934.03;4797005;29;20034;-72
2020/12/13 11:09:53;;;;;;;3.75;1.27;;;;;;;19.41;55.81;100934.88;4783899;29;20043;-72
2020/12/13 11:12:19;;;;;;;1.60;1.13;;;;;;;19.41;56.18;100928.75;4802664;29;20042;-72
2020/12/13 11:14:44;;;;;;;1.23;0.93;;;;;;;19.40;56.17;100930.50;4804638;29;20088;-72
2020/12/13 11:17:09;;;;;;;2.63;0.90;;;;;;;19.44;55.99;100931.38;4802872;29;20539;-72
2020/12/13 11:19:35;;;;;;;1.73;1.10;;;;;;;19.43;56.20;100941.00;4789639;29;20039;-72
2020/12/13 11:22:00;;;;;;;1.77;1.10;;;;;;;19.37;56.37;100932.28;4804740;29;20491;-72
2020/12/13 11:24:25;;;;;;;2.90;1.20;;;;;;;19.40;55.97;100925.28;4799928;29;20682;-72
2020/12/13 11:26:51;;;;;;;2.70;1.25;;;;;;;19.42;56.35;100926.13;4795157;29;20470;-72
2020/12/13 11:29:17;;;;;;;4.50;1.52;;;;;;;19.38;56.25;100932.28;4802650;29;20039;-72
2020/12/13 11:31:42;;;;;;;1.30;0.90;;;;;;;19.42;56.36;100936.63;4803167;29;20066;-71